sensor_id;sensor_type;location;lat;lon;timestamp;temperature;humidity
28969;DHT22;16076;51.194;6.642;2022-10-16T00:01:14;14.90;99.90
28969;DHT22;16076;51.194;6.642;2022-10-16T00:03:40;14.90;99.90
28969;DHT22;16076;51.194;6.642;2022-10-16T00:06:06;14.90;99.90
28969;DHT22;16076;51.194;6.642;2022-10-16T00:08:32;14.90;99.90
28969;DHT22;16076;51.194;6.642;2022-10-16T00:11:06;14.90;99.90
28969;DHT22;16076;51.194;6.642;2022-10-16T00:13:32;14.90;99.90
28969;DHT22;16076;51.194;6.642;2022-10-16T00:15:58;14.90;99.90
28969;DHT22;16076;51.194;6.642;2022-10-16T00:18:24;14.90;99.90
28969;DHT22;16076;51.194;6.642;2022-10-16T00:20:50;14.80;99.90
28969;DHT22;16076;51.194;6.642;2022-10-16T00:23:18;14.80;99.90
28969;DHT22;16076;51.194;6.642;2022-10-16T00:25:44;14.70;99.90
28969;DHT22;16076;51.194;6.642;2022-10-16T00:28:10;14.80;99.90
28969;DHT22;16076;51.194;6.642;2022-10-16T00:30:38;14.70;99.90
28969;DHT22;16076;51.194;6.642;2022-10-16T00:33:04;14.70;99.90
28969;DHT22;16076;51.194;6.642;2022-10-16T00:35:30;14.70;99.90
28969;DHT22;16076;51.194;6.642;2022-10-16T00:37:58;14.60;99.90
28969;DHT22;16076;51.194;6.642;2022-10-16T00:40:24;14.60;99.90
28969;DHT22;16076;51.194;6.642;2022-10-16T00:42:49;14.60;99.90
28969;DHT22;16076;51.194;6.642;2022-10-16T00:45:15;14.60;99.90
28969;DHT22;16076;51.194;6.642;2022-10-16T00:47:42;14.60;99.90
28969;DHT22;16076;51.194;6.642;2022-10-16T00:50:08;14.60;99.90
28969;DHT22;16076;51.194;6.642;2022-10-16T00:52:34;14.60;99.90
28969;DHT22;16076;51.194;6.642;2022-10-16T00:55:01;14.60;99.90
28969;DHT22;16076;51.194;6.642;2022-10-16T00:57:28;14.60;99.90
28969;DHT22;16076;51.194;6.642;2022-10-16T00:59:54;14.60;99.90
28969;DHT22;16076;51.194;6.642;2022-10-16T01:02:20;14.60;99.90
28969;DHT22;16076;51.194;6.642;2022-10-16T01:04:46;14.60;99.90
28969;DHT22;16076;51.194;6.642;2022-10-16T01:17:58;14.50;99.90
28969;DHT22;16076;51.194;6.642;2022-10-16T01:22:58;14.50;99.90
28969;DHT22;16076;51.194;6.642;2022-10-16T01:25:26;14.50;99.90
28969;DHT22;16076;51.194;6.642;2022-10-16T01:27:53;14.40;99.90
28969;DHT22;16076;51.194;6.642;2022-10-16T01:30:23;14.40;99.90
28969;DHT22;16076;51.194;6.642;2022-10-16T01:32:52;14.40;99.90
28969;DHT22;16076;51.194;6.642;2022-10-16T01:35:21;14.30;99.90
28969;DHT22;16076;51.194;6.642;2022-10-16T01:37:51;14.30;99.90
28969;DHT22;16076;51.194;6.642;2022-10-16T01:40:18;14.30;99.90
28969;DHT22;16076;51.194;6.642;2022-10-16T01:42:46;14.30;99.90
28969;DHT22;16076;51.194;6.642;2022-10-16T01:45:13;14.30;99.90
28969;DHT22;16076;51.194;6.642;2022-10-16T01:47:39;14.30;99.90
28969;DHT22;16076;51.194;6.642;2022-10-16T01:50:05;14.40;99.90
28969;DHT22;16076;51.194;6.642;2022-10-16T01:52:34;14.40;99.90
28969;DHT22;16076;51.194;6.642;2022-10-16T01:55:01;14.50;99.90
28969;DHT22;16076;51.194;6.642;2022-10-16T01:57:27;14.60;99.90
28969;DHT22;16076;51.194;6.642;2022-10-16T01:59:56;14.70;99.90
28969;DHT22;16076;51.194;6.642;2022-10-16T02:02:21;14.70;99.90
28969;DHT22;16076;51.194;6.642;2022-10-16T02:04:53;14.80;99.90
28969;DHT22;16076;51.194;6.642;2022-10-16T02:07:22;14.90;99.90
28969;DHT22;16076;51.194;6.642;2022-10-16T02:09:48;14.80;99.90
28969;DHT22;16076;51.194;6.642;2022-10-16T02:12:22;14.90;99.90
28969;DHT22;16076;51.194;6.642;2022-10-16T02:14:49;14.90;99.90
28969;DHT22;16076;51.194;6.642;2022-10-16T02:17:15;14.90;99.90
28969;DHT22;16076;51.194;6.642;2022-10-16T02:19:41;14.90;99.90
28969;DHT22;16076;51.194;6.642;2022-10-16T02:22:08;14.90;99.90
28969;DHT22;16076;51.194;6.642;2022-10-16T02:27:05;15.00;99.90
28969;DHT22;16076;51.194;6.642;2022-10-16T02:29:33;15.00;99.90
28969;DHT22;16076;51.194;6.642;2022-10-16T02:32:02;15.00;99.90
28969;DHT22;16076;51.194;6.642;2022-10-16T02:34:31;15.10;99.90
28969;DHT22;16076;51.194;6.642;2022-10-16T02:36:57;15.10;99.90
28969;DHT22;16076;51.194;6.642;2022-10-16T02:39:26;15.20;99.90
28969;DHT22;16076;51.194;6.642;2022-10-16T02:41:52;15.20;99.90
28969;DHT22;16076;51.194;6.642;2022-10-16T02:44:17;15.20;99.90
28969;DHT22;16076;51.194;6.642;2022-10-16T02:46:43;15.20;99.90
28969;DHT22;16076;51.194;6.642;2022-10-16T02:49:08;15.20;99.90
28969;DHT22;16076;51.194;6.642;2022-10-16T02:51:36;15.20;99.90
28969;DHT22;16076;51.194;6.642;2022-10-16T02:54:02;15.20;99.90
28969;DHT22;16076;51.194;6.642;2022-10-16T02:56:28;15.20;99.90
28969;DHT22;16076;51.194;6.642;2022-10-16T02:58:56;15.30;99.90
28969;DHT22;16076;51.194;6.642;2022-10-16T03:01:22;15.10;99.90
28969;DHT22;16076;51.194;6.642;2022-10-16T03:03:47;15.00;99.90
28969;DHT22;16076;51.194;6.642;2022-10-16T03:06:13;15.00;99.90
28969;DHT22;16076;51.194;6.642;2022-10-16T03:08:38;15.00;99.90
28969;DHT22;16076;51.194;6.642;2022-10-16T03:11:04;14.90;99.90
28969;DHT22;16076;51.194;6.642;2022-10-16T03:13:30;14.90;99.90
28969;DHT22;16076;51.194;6.642;2022-10-16T03:15:55;14.90;99.90
28969;DHT22;16076;51.194;6.642;2022-10-16T03:18:23;14.80;99.90
28969;DHT22;16076;51.194;6.642;2022-10-16T03:20:48;14.80;99.90
28969;DHT22;16076;51.194;6.642;2022-10-16T03:23:14;14.80;99.90
28969;DHT22;16076;51.194;6.642;2022-10-16T03:25:39;14.70;99.90
28969;DHT22;16076;51.194;6.642;2022-10-16T03:28:05;14.70;99.90
28969;DHT22;16076;51.194;6.642;2022-10-16T03:30:30;14.70;99.90
28969;DHT22;16076;51.194;6.642;2022-10-16T03:32:56;14.70;99.90
28969;DHT22;16076;51.194;6.642;2022-10-16T03:35:22;14.70;99.90
28969;DHT22;16076;51.194;6.642;2022-10-16T03:37:48;14.70;99.90
28969;DHT22;16076;51.194;6.642;2022-10-16T03:40:14;14.70;99.90
28969;DHT22;16076;51.194;6.642;2022-10-16T03:42:40;14.80;99.90
28969;DHT22;16076;51.194;6.642;2022-10-16T03:45:07;14.60;99.90
28969;DHT22;16076;51.194;6.642;2022-10-16T03:47:32;14.50;99.90
28969;DHT22;16076;51.194;6.642;2022-10-16T03:49:59;14.40;99.90
28969;DHT22;16076;51.194;6.642;2022-10-16T03:52:24;14.40;99.90
28969;DHT22;16076;51.194;6.642;2022-10-16T03:54:50;14.30;99.90
28969;DHT22;16076;51.194;6.642;2022-10-16T03:57:18;14.20;99.90
28969;DHT22;16076;51.194;6.642;2022-10-16T03:59:43;14.20;99.90
28969;DHT22;16076;51.194;6.642;2022-10-16T04:02:09;14.10;99.90
28969;DHT22;16076;51.194;6.642;2022-10-16T04:04:37;14.00;99.90
28969;DHT22;16076;51.194;6.642;2022-10-16T04:07:02;13.90;99.90
28969;DHT22;16076;51.194;6.642;2022-10-16T04:09:30;13.90;99.90
28969;DHT22;16076;51.194;6.642;2022-10-16T04:11:55;13.80;99.90
28969;DHT22;16076;51.194;6.642;2022-10-16T04:14:21;13.80;99.90
28969;DHT22;16076;51.194;6.642;2022-10-16T04:16:46;13.80;99.90
28969;DHT22;16076;51.194;6.642;2022-10-16T04:19:12;13.80;99.90
28969;DHT22;16076;51.194;6.642;2022-10-16T04:21:37;13.80;99.90
28969;DHT22;16076;51.194;6.642;2022-10-16T04:24:03;13.80;99.90
28969;DHT22;16076;51.194;6.642;2022-10-16T04:26:28;13.80;99.90
28969;DHT22;16076;51.194;6.642;2022-10-16T04:28:54;13.70;99.90
28969;DHT22;16076;51.194;6.642;2022-10-16T04:31:20;13.70;99.90
28969;DHT22;16076;51.194;6.642;2022-10-16T04:33:45;13.70;99.90
28969;DHT22;16076;51.194;6.642;2022-10-16T04:36:11;13.70;99.90
28969;DHT22;16076;51.194;6.642;2022-10-16T04:38:37;13.70;99.90
28969;DHT22;16076;51.194;6.642;2022-10-16T04:41:03;13.60;99.90
28969;DHT22;16076;51.194;6.642;2022-10-16T04:43:28;13.60;99.90
28969;DHT22;16076;51.194;6.642;2022-10-16T04:45:54;13.60;99.90
28969;DHT22;16076;51.194;6.642;2022-10-16T04:48:20;13.60;99.90
28969;DHT22;16076;51.194;6.642;2022-10-16T04:50:45;13.70;99.90
28969;DHT22;16076;51.194;6.642;2022-10-16T04:53:11;13.80;99.90
28969;DHT22;16076;51.194;6.642;2022-10-16T04:55:37;13.70;99.90
28969;DHT22;16076;51.194;6.642;2022-10-16T04:58:03;13.80;99.90
28969;DHT22;16076;51.194;6.642;2022-10-16T05:00:29;13.90;99.90
28969;DHT22;16076;51.194;6.642;2022-10-16T05:02:54;13.80;99.90
28969;DHT22;16076;51.194;6.642;2022-10-16T05:05:20;13.80;99.90
28969;DHT22;16076;51.194;6.642;2022-10-16T05:07:46;13.80;99.90
28969;DHT22;16076;51.194;6.642;2022-10-16T05:10:12;13.80;99.90
28969;DHT22;16076;51.194;6.642;2022-10-16T05:12:37;13.80;99.90
28969;DHT22;16076;51.194;6.642;2022-10-16T05:15:03;13.80;99.90
28969;DHT22;16076;51.194;6.642;2022-10-16T05:17:28;13.80;99.90
28969;DHT22;16076;51.194;6.642;2022-10-16T05:19:54;13.80;99.90
28969;DHT22;16076;51.194;6.642;2022-10-16T05:22:19;13.80;99.90
28969;DHT22;16076;51.194;6.642;2022-10-16T05:24:45;13.80;99.90
28969;DHT22;16076;51.194;6.642;2022-10-16T05:27:13;13.80;99.90
28969;DHT22;16076;51.194;6.642;2022-10-16T05:29:44;13.80;99.90
28969;DHT22;16076;51.194;6.642;2022-10-16T05:32:10;13.80;99.90
28969;DHT22;16076;51.194;6.642;2022-10-16T05:34:36;13.80;99.90
28969;DHT22;16076;51.194;6.642;2022-10-16T05:37:02;13.80;99.90
28969;DHT22;16076;51.194;6.642;2022-10-16T05:39:27;13.90;99.90
28969;DHT22;16076;51.194;6.642;2022-10-16T05:41:53;13.80;99.90
28969;DHT22;16076;51.194;6.642;2022-10-16T05:44:18;13.80;99.90
28969;DHT22;16076;51.194;6.642;2022-10-16T05:46:45;13.80;99.90
28969;DHT22;16076;51.194;6.642;2022-10-16T05:49:13;13.90;99.90
28969;DHT22;16076;51.194;6.642;2022-10-16T05:51:39;13.80;99.90
28969;DHT22;16076;51.194;6.642;2022-10-16T05:54:04;13.80;99.90
28969;DHT22;16076;51.194;6.642;2022-10-16T05:56:30;13.70;99.90
28969;DHT22;16076;51.194;6.642;2022-10-16T05:58:55;13.70;99.90
28969;DHT22;16076;51.194;6.642;2022-10-16T06:01:21;13.70;99.90
28969;DHT22;16076;51.194;6.642;2022-10-16T06:03:52;13.70;99.90
28969;DHT22;16076;51.194;6.642;2022-10-16T06:06:22;13.70;99.90
28969;DHT22;16076;51.194;6.642;2022-10-16T06:08:48;13.70;99.90
28969;DHT22;16076;51.194;6.642;2022-10-16T06:11:17;13.70;99.90
28969;DHT22;16076;51.194;6.642;2022-10-16T06:13:43;13.70;99.90
28969;DHT22;16076;51.194;6.642;2022-10-16T06:16:11;13.70;99.90
28969;DHT22;16076;51.194;6.642;2022-10-16T06:18:37;13.80;99.90
28969;DHT22;16076;51.194;6.642;2022-10-16T06:21:13;13.80;99.90
28969;DHT22;16076;51.194;6.642;2022-10-16T06:23:39;13.80;99.90
28969;DHT22;16076;51.194;6.642;2022-10-16T06:26:05;13.90;99.90
28969;DHT22;16076;51.194;6.642;2022-10-16T06:28:31;13.90;99.90
28969;DHT22;16076;51.194;6.642;2022-10-16T06:31:00;13.90;99.90
28969;DHT22;16076;51.194;6.642;2022-10-16T06:33:25;14.00;99.90
28969;DHT22;16076;51.194;6.642;2022-10-16T06:35:51;14.00;99.90
28969;DHT22;16076;51.194;6.642;2022-10-16T06:38:16;14.10;99.90
28969;DHT22;16076;51.194;6.642;2022-10-16T06:40:42;14.20;99.90
28969;DHT22;16076;51.194;6.642;2022-10-16T06:43:07;14.20;99.90
28969;DHT22;16076;51.194;6.642;2022-10-16T06:45:33;14.20;99.90
28969;DHT22;16076;51.194;6.642;2022-10-16T06:47:58;14.30;99.90
28969;DHT22;16076;51.194;6.642;2022-10-16T06:50:24;14.30;99.90
28969;DHT22;16076;51.194;6.642;2022-10-16T06:52:49;14.40;99.90
28969;DHT22;16076;51.194;6.642;2022-10-16T06:55:17;14.60;99.90
28969;DHT22;16076;51.194;6.642;2022-10-16T06:57:43;14.50;99.90
28969;DHT22;16076;51.194;6.642;2022-10-16T07:00:09;14.50;99.90
28969;DHT22;16076;51.194;6.642;2022-10-16T07:02:34;14.50;99.90
28969;DHT22;16076;51.194;6.642;2022-10-16T07:05:00;14.50;99.90
28969;DHT22;16076;51.194;6.642;2022-10-16T07:07:26;14.40;99.90
28969;DHT22;16076;51.194;6.642;2022-10-16T07:09:52;14.40;99.90
28969;DHT22;16076;51.194;6.642;2022-10-16T07:12:17;14.40;99.90
28969;DHT22;16076;51.194;6.642;2022-10-16T07:14:43;14.30;99.90
28969;DHT22;16076;51.194;6.642;2022-10-16T07:17:08;14.30;99.90
28969;DHT22;16076;51.194;6.642;2022-10-16T07:19:34;14.40;99.90
28969;DHT22;16076;51.194;6.642;2022-10-16T07:21:59;14.30;99.90
28969;DHT22;16076;51.194;6.642;2022-10-16T07:24:25;14.20;99.90
28969;DHT22;16076;51.194;6.642;2022-10-16T07:26:50;14.30;99.90
28969;DHT22;16076;51.194;6.642;2022-10-16T07:29:17;14.30;99.90
28969;DHT22;16076;51.194;6.642;2022-10-16T07:31:43;14.40;99.90
28969;DHT22;16076;51.194;6.642;2022-10-16T07:34:09;14.30;99.90
28969;DHT22;16076;51.194;6.642;2022-10-16T07:36:37;14.30;99.90
28969;DHT22;16076;51.194;6.642;2022-10-16T07:39:03;14.30;99.90
28969;DHT22;16076;51.194;6.642;2022-10-16T07:41:29;14.40;99.90
28969;DHT22;16076;51.194;6.642;2022-10-16T07:43:55;14.40;99.90
28969;DHT22;16076;51.194;6.642;2022-10-16T07:46:22;14.60;99.90
28969;DHT22;16076;51.194;6.642;2022-10-16T07:48:48;14.60;99.90
28969;DHT22;16076;51.194;6.642;2022-10-16T07:51:23;14.60;99.90
28969;DHT22;16076;51.194;6.642;2022-10-16T07:53:49;14.70;99.90
28969;DHT22;16076;51.194;6.642;2022-10-16T07:56:15;14.90;99.90
28969;DHT22;16076;51.194;6.642;2022-10-16T07:58:41;14.90;99.90
28969;DHT22;16076;51.194;6.642;2022-10-16T08:01:10;15.00;99.90
28969;DHT22;16076;51.194;6.642;2022-10-16T08:03:36;15.20;99.90
28969;DHT22;16076;51.194;6.642;2022-10-16T08:06:01;15.30;99.90
28969;DHT22;16076;51.194;6.642;2022-10-16T08:08:27;15.40;99.90
28969;DHT22;16076;51.194;6.642;2022-10-16T08:10:53;15.50;99.90
28969;DHT22;16076;51.194;6.642;2022-10-16T08:13:18;15.70;99.90
28969;DHT22;16076;51.194;6.642;2022-10-16T08:15:44;15.90;99.90
28969;DHT22;16076;51.194;6.642;2022-10-16T08:18:11;15.90;99.90
28969;DHT22;16076;51.194;6.642;2022-10-16T08:20:36;16.00;99.90
28969;DHT22;16076;51.194;6.642;2022-10-16T08:23:02;16.10;99.90
28969;DHT22;16076;51.194;6.642;2022-10-16T08:25:27;16.20;99.90
28969;DHT22;16076;51.194;6.642;2022-10-16T08:27:53;16.40;99.90
28969;DHT22;16076;51.194;6.642;2022-10-16T08:30:21;16.40;99.90
28969;DHT22;16076;51.194;6.642;2022-10-16T08:32:50;16.50;99.90
28969;DHT22;16076;51.194;6.642;2022-10-16T08:35:15;16.50;99.90
28969;DHT22;16076;51.194;6.642;2022-10-16T08:37:41;16.60;99.90
28969;DHT22;16076;51.194;6.642;2022-10-16T08:40:13;16.60;99.90
28969;DHT22;16076;51.194;6.642;2022-10-16T08:50:49;17.00;99.90
28969;DHT22;16076;51.194;6.642;2022-10-16T08:53:27;17.00;99.90
28969;DHT22;16076;51.194;6.642;2022-10-16T08:55:53;17.10;99.90
28969;DHT22;16076;51.194;6.642;2022-10-16T08:58:20;17.20;99.90
28969;DHT22;16076;51.194;6.642;2022-10-16T09:00:47;17.30;99.90
28969;DHT22;16076;51.194;6.642;2022-10-16T09:18:43;17.70;99.90
28969;DHT22;16076;51.194;6.642;2022-10-16T09:21:14;17.70;99.90
28969;DHT22;16076;51.194;6.642;2022-10-16T09:23:40;17.70;99.90
28969;DHT22;16076;51.194;6.642;2022-10-16T09:26:09;17.80;99.90
28969;DHT22;16076;51.194;6.642;2022-10-16T09:28:36;17.80;99.90
28969;DHT22;16076;51.194;6.642;2022-10-16T09:31:01;17.90;99.90
28969;DHT22;16076;51.194;6.642;2022-10-16T09:33:32;18.00;99.90
28969;DHT22;16076;51.194;6.642;2022-10-16T09:35:58;18.10;99.90
28969;DHT22;16076;51.194;6.642;2022-10-16T09:40:49;18.30;99.90
28969;DHT22;16076;51.194;6.642;2022-10-16T09:43:49;18.30;99.90
28969;DHT22;16076;51.194;6.642;2022-10-16T09:46:24;18.30;99.90
28969;DHT22;16076;51.194;6.642;2022-10-16T09:48:50;18.40;99.90
28969;DHT22;16076;51.194;6.642;2022-10-16T09:51:21;18.40;99.90
28969;DHT22;16076;51.194;6.642;2022-10-16T09:53:47;18.40;99.90
28969;DHT22;16076;51.194;6.642;2022-10-16T09:56:23;18.40;99.90
28969;DHT22;16076;51.194;6.642;2022-10-16T09:58:49;18.50;99.90
28969;DHT22;16076;51.194;6.642;2022-10-16T10:01:16;18.40;99.90
28969;DHT22;16076;51.194;6.642;2022-10-16T10:03:42;18.40;99.90
28969;DHT22;16076;51.194;6.642;2022-10-16T10:06:16;18.50;99.90
28969;DHT22;16076;51.194;6.642;2022-10-16T10:08:52;18.50;99.90
28969;DHT22;16076;51.194;6.642;2022-10-16T10:11:18;18.60;99.90
28969;DHT22;16076;51.194;6.642;2022-10-16T10:13:43;18.60;99.90
28969;DHT22;16076;51.194;6.642;2022-10-16T10:16:09;18.60;99.90
28969;DHT22;16076;51.194;6.642;2022-10-16T10:18:34;18.50;99.90
28969;DHT22;16076;51.194;6.642;2022-10-16T10:21:01;18.40;99.90
28969;DHT22;16076;51.194;6.642;2022-10-16T10:23:27;18.40;99.90
28969;DHT22;16076;51.194;6.642;2022-10-16T10:25:54;18.40;99.90
28969;DHT22;16076;51.194;6.642;2022-10-16T10:31:20;18.20;99.90
28969;DHT22;16076;51.194;6.642;2022-10-16T10:33:54;18.20;99.90
28969;DHT22;16076;51.194;6.642;2022-10-16T10:49:03;18.40;99.90
28969;DHT22;16076;51.194;6.642;2022-10-16T10:51:40;18.50;99.90
28969;DHT22;16076;51.194;6.642;2022-10-16T10:54:16;18.50;99.90
28969;DHT22;16076;51.194;6.642;2022-10-16T10:59:52;18.60;99.90
28969;DHT22;16076;51.194;6.642;2022-10-16T11:02:26;18.60;99.90
28969;DHT22;16076;51.194;6.642;2022-10-16T11:05:15;18.70;99.90
28969;DHT22;16076;51.194;6.642;2022-10-16T11:07:45;18.80;99.90
28969;DHT22;16076;51.194;6.642;2022-10-16T11:10:14;19.00;99.90
28969;DHT22;16076;51.194;6.642;2022-10-16T11:12:42;19.10;99.90
28969;DHT22;16076;51.194;6.642;2022-10-16T11:17:42;19.30;99.90
28969;DHT22;16076;51.194;6.642;2022-10-16T11:22:43;19.50;99.90
28969;DHT22;16076;51.194;6.642;2022-10-16T11:27:43;19.70;99.90
28969;DHT22;16076;51.194;6.642;2022-10-16T11:30:16;19.70;99.90
28969;DHT22;16076;51.194;6.642;2022-10-16T11:35:18;19.90;99.90
28969;DHT22;16076;51.194;6.642;2022-10-16T11:37:47;19.90;99.90
28969;DHT22;16076;51.194;6.642;2022-10-16T11:42:41;20.10;99.90
28969;DHT22;16076;51.194;6.642;2022-10-16T11:45:32;20.10;99.90
28969;DHT22;16076;51.194;6.642;2022-10-16T11:48:07;20.10;99.90
28969;DHT22;16076;51.194;6.642;2022-10-16T11:50:43;20.10;99.90
28969;DHT22;16076;51.194;6.642;2022-10-16T11:53:16;20.00;99.90
28969;DHT22;16076;51.194;6.642;2022-10-16T11:55:45;20.00;99.90
28969;DHT22;16076;51.194;6.642;2022-10-16T11:58:28;19.90;99.90
28969;DHT22;16076;51.194;6.642;2022-10-16T12:03:36;20.10;99.90
28969;DHT22;16076;51.194;6.642;2022-10-16T12:08:31;20.60;99.90
28969;DHT22;16076;51.194;6.642;2022-10-16T12:11:20;20.70;99.90
28969;DHT22;16076;51.194;6.642;2022-10-16T12:13:47;20.80;99.90
28969;DHT22;16076;51.194;6.642;2022-10-16T12:18:48;21.00;99.90
28969;DHT22;16076;51.194;6.642;2022-10-16T12:21:14;21.00;99.90
28969;DHT22;16076;51.194;6.642;2022-10-16T12:26:23;21.10;99.90
28969;DHT22;16076;51.194;6.642;2022-10-16T12:28:49;21.30;99.90
28969;DHT22;16076;51.194;6.642;2022-10-16T12:31:16;21.50;99.90
28969;DHT22;16076;51.194;6.642;2022-10-16T12:33:56;21.60;99.90
28969;DHT22;16076;51.194;6.642;2022-10-16T12:36:29;21.80;99.90
28969;DHT22;16076;51.194;6.642;2022-10-16T12:38:55;22.00;99.90
28969;DHT22;16076;51.194;6.642;2022-10-16T12:41:28;22.20;99.90
28969;DHT22;16076;51.194;6.642;2022-10-16T12:43:54;22.20;99.90
28969;DHT22;16076;51.194;6.642;2022-10-16T12:46:21;22.30;99.90
28969;DHT22;16076;51.194;6.642;2022-10-16T12:48:47;22.50;99.90
28969;DHT22;16076;51.194;6.642;2022-10-16T13:02:44;21.90;99.90
28969;DHT22;16076;51.194;6.642;2022-10-16T13:08:12;22.10;99.90
28969;DHT22;16076;51.194;6.642;2022-10-16T13:12:39;22.30;99.90
28969;DHT22;16076;51.194;6.642;2022-10-16T13:15:11;22.30;99.90
28969;DHT22;16076;51.194;6.642;2022-10-16T13:22:41;22.60;99.90
28969;DHT22;16076;51.194;6.642;2022-10-16T13:30:23;22.70;99.90
28969;DHT22;16076;51.194;6.642;2022-10-16T13:32:50;22.70;99.90
28969;DHT22;16076;51.194;6.642;2022-10-16T13:35:35;22.80;99.90
28969;DHT22;16076;51.194;6.642;2022-10-16T13:40:29;23.30;99.90
28969;DHT22;16076;51.194;6.642;2022-10-16T13:42:55;23.50;99.90
28969;DHT22;16076;51.194;6.642;2022-10-16T13:45:24;23.50;99.90
28969;DHT22;16076;51.194;6.642;2022-10-16T13:48:00;23.60;99.90
28969;DHT22;16076;51.194;6.642;2022-10-16T13:50:26;23.70;99.90
28969;DHT22;16076;51.194;6.642;2022-10-16T13:52:51;24.00;99.90
28969;DHT22;16076;51.194;6.642;2022-10-16T13:55:18;24.20;99.90
28969;DHT22;16076;51.194;6.642;2022-10-16T13:57:43;24.30;99.00
28969;DHT22;16076;51.194;6.642;2022-10-16T14:02:44;23.90;98.90
28969;DHT22;16076;51.194;6.642;2022-10-16T14:05:09;23.50;99.60
28969;DHT22;16076;51.194;6.642;2022-10-16T14:07:39;23.20;99.90
28969;DHT22;16076;51.194;6.642;2022-10-16T14:10:51;23.10;99.90
28969;DHT22;16076;51.194;6.642;2022-10-16T14:15:23;22.90;99.90
28969;DHT22;16076;51.194;6.642;2022-10-16T14:17:50;22.80;99.90
28969;DHT22;16076;51.194;6.642;2022-10-16T14:20:16;22.80;99.90
28969;DHT22;16076;51.194;6.642;2022-10-16T14:22:44;22.90;99.90
28969;DHT22;16076;51.194;6.642;2022-10-16T14:27:55;23.30;99.90
28969;DHT22;16076;51.194;6.642;2022-10-16T14:30:21;23.40;99.90
28969;DHT22;16076;51.194;6.642;2022-10-16T14:33:06;23.50;99.90
28969;DHT22;16076;51.194;6.642;2022-10-16T14:35:36;23.50;99.90
28969;DHT22;16076;51.194;6.642;2022-10-16T14:38:02;23.40;99.90
28969;DHT22;16076;51.194;6.642;2022-10-16T14:40:29;23.30;99.90
28969;DHT22;16076;51.194;6.642;2022-10-16T14:42:55;23.10;99.90
28969;DHT22;16076;51.194;6.642;2022-10-16T14:45:24;23.10;99.90
28969;DHT22;16076;51.194;6.642;2022-10-16T14:47:55;23.00;99.90
28969;DHT22;16076;51.194;6.642;2022-10-16T14:50:22;23.00;99.90
28969;DHT22;16076;51.194;6.642;2022-10-16T14:52:48;22.90;99.90
28969;DHT22;16076;51.194;6.642;2022-10-16T14:55:13;22.80;99.90
28969;DHT22;16076;51.194;6.642;2022-10-16T14:57:39;22.60;99.90
28969;DHT22;16076;51.194;6.642;2022-10-16T15:00:09;22.50;99.90
28969;DHT22;16076;51.194;6.642;2022-10-16T15:02:38;22.40;99.90
28969;DHT22;16076;51.194;6.642;2022-10-16T15:07:41;22.20;99.90
28969;DHT22;16076;51.194;6.642;2022-10-16T15:10:07;22.10;99.90
28969;DHT22;16076;51.194;6.642;2022-10-16T15:12:32;22.00;99.90
28969;DHT22;16076;51.194;6.642;2022-10-16T15:14:58;21.90;99.90
28969;DHT22;16076;51.194;6.642;2022-10-16T15:17:23;21.80;99.90
28969;DHT22;16076;51.194;6.642;2022-10-16T15:19:49;21.70;99.90
28969;DHT22;16076;51.194;6.642;2022-10-16T15:22:14;21.60;99.90
28969;DHT22;16076;51.194;6.642;2022-10-16T15:24:42;21.50;99.90
28969;DHT22;16076;51.194;6.642;2022-10-16T15:27:07;21.50;99.90
28969;DHT22;16076;51.194;6.642;2022-10-16T15:29:33;21.40;99.90
28969;DHT22;16076;51.194;6.642;2022-10-16T15:31:58;21.30;99.90
28969;DHT22;16076;51.194;6.642;2022-10-16T15:34:26;21.30;99.90
28969;DHT22;16076;51.194;6.642;2022-10-16T15:36:52;21.20;99.90
28969;DHT22;16076;51.194;6.642;2022-10-16T15:39:24;21.20;99.90
28969;DHT22;16076;51.194;6.642;2022-10-16T15:41:49;21.10;99.90
28969;DHT22;16076;51.194;6.642;2022-10-16T15:44:19;21.10;99.90
28969;DHT22;16076;51.194;6.642;2022-10-16T15:46:46;21.00;99.90
28969;DHT22;16076;51.194;6.642;2022-10-16T15:49:12;20.90;99.90
28969;DHT22;16076;51.194;6.642;2022-10-16T15:51:38;20.80;99.90
28969;DHT22;16076;51.194;6.642;2022-10-16T15:54:08;20.70;99.90
28969;DHT22;16076;51.194;6.642;2022-10-16T15:56:34;20.60;99.90
28969;DHT22;16076;51.194;6.642;2022-10-16T15:59:02;20.50;99.90
28969;DHT22;16076;51.194;6.642;2022-10-16T16:01:28;20.40;99.90
28969;DHT22;16076;51.194;6.642;2022-10-16T16:03:54;20.40;99.90
28969;DHT22;16076;51.194;6.642;2022-10-16T16:06:20;20.30;99.90
28969;DHT22;16076;51.194;6.642;2022-10-16T16:08:46;20.30;99.90
28969;DHT22;16076;51.194;6.642;2022-10-16T16:11:14;20.20;99.90
28969;DHT22;16076;51.194;6.642;2022-10-16T16:13:43;20.20;99.90
28969;DHT22;16076;51.194;6.642;2022-10-16T16:16:12;20.10;99.90
28969;DHT22;16076;51.194;6.642;2022-10-16T16:18:38;20.00;99.90
28969;DHT22;16076;51.194;6.642;2022-10-16T16:21:06;19.90;99.90
28969;DHT22;16076;51.194;6.642;2022-10-16T16:23:32;19.80;99.90
28969;DHT22;16076;51.194;6.642;2022-10-16T16:26:05;19.80;99.90
28969;DHT22;16076;51.194;6.642;2022-10-16T16:28:31;19.70;99.90
28969;DHT22;16076;51.194;6.642;2022-10-16T16:30:56;19.60;99.90
28969;DHT22;16076;51.194;6.642;2022-10-16T16:33:22;19.60;99.90
28969;DHT22;16076;51.194;6.642;2022-10-16T16:35:50;19.50;99.90
28969;DHT22;16076;51.194;6.642;2022-10-16T16:38:15;19.50;99.90
28969;DHT22;16076;51.194;6.642;2022-10-16T16:40:41;19.40;99.90
28969;DHT22;16076;51.194;6.642;2022-10-16T16:43:06;19.40;99.90
28969;DHT22;16076;51.194;6.642;2022-10-16T16:45:35;19.30;99.90
28969;DHT22;16076;51.194;6.642;2022-10-16T16:48:00;19.30;99.90
28969;DHT22;16076;51.194;6.642;2022-10-16T16:50:26;19.20;99.90
28969;DHT22;16076;51.194;6.642;2022-10-16T16:52:51;19.10;99.90
28969;DHT22;16076;51.194;6.642;2022-10-16T16:55:16;19.00;99.90
28969;DHT22;16076;51.194;6.642;2022-10-16T16:57:42;19.00;99.90
28969;DHT22;16076;51.194;6.642;2022-10-16T17:00:08;19.00;99.90
28969;DHT22;16076;51.194;6.642;2022-10-16T17:02:33;19.00;99.90
28969;DHT22;16076;51.194;6.642;2022-10-16T17:04:59;18.90;99.90
28969;DHT22;16076;51.194;6.642;2022-10-16T17:07:25;18.90;99.90
28969;DHT22;16076;51.194;6.642;2022-10-16T17:09:52;18.80;99.90
28969;DHT22;16076;51.194;6.642;2022-10-16T17:12:17;18.80;99.90
28969;DHT22;16076;51.194;6.642;2022-10-16T17:14:42;18.80;99.90
28969;DHT22;16076;51.194;6.642;2022-10-16T17:17:08;18.70;99.90
28969;DHT22;16076;51.194;6.642;2022-10-16T17:19:33;18.70;99.90
28969;DHT22;16076;51.194;6.642;2022-10-16T17:21:59;18.60;99.90
28969;DHT22;16076;51.194;6.642;2022-10-16T17:24:25;18.60;99.90
28969;DHT22;16076;51.194;6.642;2022-10-16T17:26:50;18.60;99.90
28969;DHT22;16076;51.194;6.642;2022-10-16T17:29:16;18.60;99.90
28969;DHT22;16076;51.194;6.642;2022-10-16T17:31:45;18.50;99.90
28969;DHT22;16076;51.194;6.642;2022-10-16T17:34:14;18.50;99.90